createdAt,value
2022-09-03T00:00:54.906Z,28.53
2022-09-03T00:03:44.365Z,28.46
2022-09-03T00:06:33.333Z,28.43
2022-09-03T00:09:03.706Z,28.39
2022-09-03T00:11:43.458Z,28.61
2022-09-03T00:14:20.787Z,28.64
2022-09-03T00:16:53.161Z,28.76
2022-09-03T00:19:33.823Z,28.89
2022-09-03T00:22:08.784Z,28.69
2022-09-03T00:24:38.210Z,28.83
2022-09-03T00:27:11.478Z,29.04
2022-09-03T00:29:55.037Z,29.12
2022-09-03T00:32:47.821Z,29.37
2022-09-03T00:35:21.749Z,29.15
2022-09-03T00:37:49.079Z,28.95
2022-09-03T00:40:32.516Z,29.34
2022-09-03T00:43:06.128Z,29.27
2022-09-03T00:45:41.531Z,28.95
2022-09-03T00:48:27.743Z,29.08
2022-09-03T00:51:11.907Z,29.29
2022-09-03T00:53:59.313Z,29.31
2022-09-03T00:56:44.435Z,29.05
2022-09-03T00:59:37.107Z,29.44
2022-09-03T01:02:36.441Z,29.69
2022-09-03T01:05:35.705Z,29.41
2022-09-03T01:08:26.389Z,29.41
2022-09-03T01:11:07.966Z,29.54
2022-09-03T01:13:34.523Z,29.33
2022-09-03T01:16:16.291Z,29.83
2022-09-03T01:19:05.709Z,29.55
2022-09-03T01:22:26.313Z,29.71
2022-09-03T01:25:15.173Z,29.90
2022-09-03T01:28:05.984Z,30.05
2022-09-03T01:30:39.026Z,30.12
2022-09-03T01:33:14.191Z,29.76
2022-09-03T01:35:48.239Z,30.21
2022-09-03T01:38:34.434Z,30.28
2022-09-03T01:41:58.450Z,30.24
2022-09-03T01:44:32.704Z,30.23
2022-09-03T01:47:11.762Z,30.39
2022-09-03T01:50:20.956Z,30.42
2022-09-03T01:53:05.690Z,30.68
2022-09-03T01:55:32.233Z,30.19
2022-09-03T01:58:24.256Z,30.71
2022-09-03T02:00:59.103Z,30.84
2022-09-03T02:03:33.584Z,30.49
2022-09-03T02:06:00.616Z,30.58
2022-09-03T02:08:27.131Z,30.59
2022-09-03T02:11:01.862Z,31.02
2022-09-03T02:13:48.715Z,30.72
2022-09-03T02:16:27.772Z,30.93
2022-09-03T02:18:57.733Z,31.17
2022-09-03T02:21:27.416Z,30.90
2022-09-03T02:23:54.063Z,30.95
2022-09-03T02:26:23.782Z,31.17
2022-09-03T02:28:52.008Z,31.14
2022-09-03T02:31:18.990Z,31.17
2022-09-03T02:33:49.011Z,31.31
2022-09-03T02:36:19.280Z,31.44
2022-09-03T02:38:46.581Z,31.21
2022-09-03T02:41:14.161Z,31.20
2022-09-03T02:43:55.335Z,31.53
2022-09-03T02:46:26.979Z,31.41
2022-09-03T02:48:54.936Z,31.18
2022-09-03T02:51:21.645Z,31.59
2022-09-03T02:53:48.194Z,31.76
2022-09-03T02:56:14.708Z,31.66
2022-09-03T02:58:41.485Z,31.66
2022-09-03T03:01:08.296Z,31.54
2022-09-03T03:03:34.844Z,31.83
2022-09-03T03:06:04.562Z,31.91
2022-09-03T03:08:32.961Z,31.88
2022-09-03T03:11:00.677Z,31.83
2022-09-03T03:13:28.351Z,31.91
2022-09-03T03:16:03.287Z,32.41
2022-09-03T03:18:30.030Z,32.05
2022-09-03T03:20:56.510Z,31.84
2022-09-03T03:23:23.091Z,31.98
2022-09-03T03:25:49.864Z,32.24
2022-09-03T03:28:18.109Z,32.28
2022-09-03T03:30:47.599Z,32.12
2022-09-03T03:33:14.214Z,32.00
2022-09-03T03:35:42.603Z,32.41
2022-09-03T03:38:09.127Z,32.18
2022-09-03T03:40:38.472Z,32.40
2022-09-03T03:43:04.976Z,32.19
2022-09-03T03:45:31.458Z,32.29
2022-09-03T03:47:59.212Z,32.46
2022-09-03T03:50:26.164Z,32.33
2022-09-03T03:52:52.654Z,32.55
2022-09-03T03:55:19.135Z,32.55
2022-09-03T03:57:46.757Z,32.63
2022-09-03T04:00:14.367Z,32.69
2022-09-03T04:02:40.887Z,32.71
2022-09-03T04:05:07.825Z,32.48
2022-09-03T04:07:34.911Z,32.90
2022-09-03T04:10:01.469Z,32.97
2022-09-03T04:12:27.999Z,32.99
2022-09-03T04:14:54.483Z,32.93
2022-09-03T04:17:25.025Z,32.94
2022-09-03T04:19:51.840Z,33.08
2022-09-03T04:22:19.120Z,32.99
2022-09-03T04:24:45.608Z,32.96
2022-09-03T04:27:12.076Z,33.10
2022-09-03T04:29:38.592Z,33.00
2022-09-03T04:32:24.890Z,33.20
2022-09-03T04:34:51.391Z,33.15
2022-09-03T04:37:19.823Z,33.36
2022-09-03T04:39:46.442Z,33.51
2022-09-03T04:42:12.987Z,33.44
2022-09-03T04:44:41.131Z,33.52
2022-09-03T04:47:07.688Z,33.50
2022-09-03T04:49:34.619Z,33.50
2022-09-03T04:52:01.495Z,33.63
2022-09-03T04:54:29.228Z,33.62
2022-09-03T04:56:56.389Z,33.58
2022-09-03T04:59:22.909Z,33.67
2022-09-03T05:01:49.525Z,33.74
2022-09-03T05:04:16.047Z,33.54
2022-09-03T05:06:43.377Z,33.85
2022-09-03T05:09:09.925Z,33.89
2022-09-03T05:11:36.785Z,33.70
2022-09-03T05:14:05.900Z,34.15
2022-09-03T05:16:32.532Z,34.06
2022-09-03T05:19:00.841Z,34.08
2022-09-03T05:21:28.468Z,34.00
2022-09-03T05:23:54.988Z,33.85
2022-09-03T05:26:27.433Z,34.52
2022-09-03T05:28:56.267Z,34.22
2022-09-03T05:31:26.287Z,34.21
2022-09-03T05:33:55.005Z,34.28
2022-09-03T05:36:23.428Z,34.39
2022-09-03T05:38:50.856Z,34.33
2022-09-03T05:41:18.918Z,34.31
2022-09-03T05:43:51.879Z,34.45
2022-09-03T05:46:18.470Z,34.30
2022-09-03T05:48:45.544Z,34.34
2022-09-03T05:51:17.108Z,34.44
2022-09-03T05:53:45.991Z,34.47
2022-09-03T05:56:20.916Z,34.70
2022-09-03T05:58:50.159Z,34.38
2022-09-03T06:01:20.915Z,34.17
2022-09-03T06:03:53.592Z,34.32
2022-09-03T06:06:25.461Z,34.45
2022-09-03T06:08:53.491Z,34.34
2022-09-03T06:11:20.779Z,34.24
2022-09-03T06:13:47.721Z,34.28
2022-09-03T06:16:14.555Z,34.43
2022-09-03T06:18:41.187Z,34.25
2022-09-03T06:21:07.859Z,34.16
2022-09-03T06:23:36.267Z,34.17
2022-09-03T06:26:05.244Z,34.09
2022-09-03T06:28:36.207Z,33.98
2022-09-03T06:31:04.653Z,33.83
2022-09-03T06:33:32.749Z,33.90
2022-09-03T06:36:00.979Z,33.73
2022-09-03T06:38:35.779Z,33.71
2022-09-03T06:41:05.049Z,33.45
2022-09-03T06:43:34.228Z,33.68
2022-09-03T06:46:03.629Z,33.78
2022-09-03T06:48:32.484Z,33.66
2022-09-03T06:51:01.315Z,33.61
2022-09-03T06:53:32.225Z,33.55
2022-09-03T06:56:04.518Z,33.70
2022-09-03T06:58:33.624Z,33.69
2022-09-03T07:01:12.860Z,33.81
2022-09-03T07:03:41.109Z,33.08
2022-09-03T07:06:13.892Z,33.15
2022-09-03T07:08:41.863Z,33.01
2022-09-03T07:11:12.015Z,32.88
2022-09-03T07:13:41.171Z,32.98
2022-09-03T07:16:11.297Z,32.58
2022-09-03T07:18:37.891Z,32.51
2022-09-03T07:21:07.628Z,32.41
2022-09-03T07:23:35.671Z,32.36
2022-09-03T07:26:05.546Z,32.38
2022-09-03T07:28:34.319Z,32.38
2022-09-03T07:31:13.850Z,31.96
2022-09-03T07:33:41.063Z,32.12
2022-09-03T07:36:10.401Z,31.92
2022-09-03T07:38:37.455Z,32.00
2022-09-03T07:41:08.368Z,31.91
2022-09-03T07:43:48.922Z,31.93
2022-09-03T07:46:24.185Z,31.88
2022-09-03T07:48:52.321Z,32.19
2022-09-03T07:51:20.643Z,32.19
2022-09-03T07:53:48.688Z,31.97
2022-09-03T07:56:15.842Z,31.28
2022-09-03T07:58:42.928Z,30.65
2022-09-03T08:01:13.178Z,30.35
2022-09-03T08:03:45.333Z,29.08
2022-09-03T08:06:12.887Z,28.85
2022-09-03T08:08:40.266Z,28.52
2022-09-03T08:11:10.778Z,27.92
2022-09-03T08:13:42.248Z,27.00
2022-09-03T08:16:09.885Z,27.41
2022-09-03T08:18:39.168Z,26.77
2022-09-03T08:21:16.980Z,25.90
2022-09-03T08:23:45.834Z,26.31
2022-09-03T08:26:13.783Z,25.32
2022-09-03T08:28:40.648Z,25.03
2022-09-03T08:31:12.699Z,24.83
2022-09-03T08:33:44.967Z,24.72
2022-09-03T08:36:26.973Z,24.83
2022-09-03T08:38:55.260Z,25.12
2022-09-03T08:41:40.883Z,25.68
2022-09-03T08:44:16.333Z,25.59
2022-09-03T08:46:58.249Z,25.96
2022-09-03T08:49:39.992Z,25.92
2022-09-03T08:52:20.240Z,26.29
2022-09-03T08:54:49.347Z,26.33
2022-09-03T08:57:19.257Z,26.32
2022-09-03T08:59:46.674Z,27.12
2022-09-03T09:02:53.647Z,26.52
2022-09-03T09:05:58.907Z,26.59
2022-09-03T09:09:11.558Z,26.85
2022-09-03T09:12:00.137Z,27.11
2022-09-03T09:15:00.158Z,27.11
2022-09-03T09:17:52.273Z,26.94
2022-09-03T09:20:32.732Z,27.11
2022-09-03T09:23:07.665Z,27.19
2022-09-03T09:25:47.134Z,26.71
2022-09-03T09:28:24.406Z,26.86
2022-09-03T09:30:55.647Z,26.57
2022-09-03T09:33:23.571Z,26.73
2022-09-03T09:35:50.323Z,26.48
2022-09-03T09:38:28.498Z,26.34
2022-09-03T09:40:57.522Z,26.13
2022-09-03T09:43:24.570Z,26.44
2022-09-03T09:45:53.320Z,26.14
2022-09-03T09:48:31.159Z,26.17
2022-09-03T09:51:12.254Z,26.07
2022-09-03T09:53:40.051Z,25.62
2022-09-03T09:56:07.944Z,25.72
2022-09-03T09:58:35.831Z,25.52
2022-09-03T10:01:18.722Z,25.30
2022-09-03T10:03:55.125Z,24.90
2022-09-03T10:06:47.964Z,25.19
2022-09-03T10:09:26.745Z,25.05
2022-09-03T10:11:58.205Z,25.18
2022-09-03T10:14:33.234Z,24.88
2022-09-03T10:17:10.656Z,24.96
2022-09-03T10:20:27.281Z,24.91
2022-09-03T10:22:59.231Z,25.02
2022-09-03T10:25:32.131Z,24.90
2022-09-03T10:28:01.967Z,24.87
2022-09-03T10:30:31.466Z,24.82
2022-09-03T10:33:24.888Z,24.83
2022-09-03T10:36:07.386Z,24.34
2022-09-03T10:38:34.626Z,24.78
2022-09-03T10:41:21.294Z,24.59
2022-09-03T10:44:09.024Z,24.41
2022-09-03T10:46:50.342Z,25.03
2022-09-03T10:49:41.227Z,24.49
2022-09-03T10:52:35.146Z,24.73
2022-09-03T10:55:23.752Z,24.82
2022-09-03T10:57:56.198Z,24.18
2022-09-03T11:00:23.818Z,24.45
2022-09-03T11:03:29.930Z,24.48
2022-09-03T11:05:58.643Z,23.72
2022-09-03T11:08:31.240Z,24.00
2022-09-03T11:11:10.633Z,23.91
2022-09-03T11:13:47.272Z,23.40
2022-09-03T11:16:31.078Z,23.75
2022-09-03T11:19:04.185Z,23.20
2022-09-03T11:21:32.803Z,23.21
2022-09-03T11:24:06.782Z,23.27
2022-09-03T11:26:35.300Z,23.61
2022-09-03T11:29:06.969Z,24.05
2022-09-03T11:32:00.254Z,24.29
2022-09-03T11:34:32.021Z,24.04
2022-09-03T11:37:29.932Z,24.81
2022-09-03T11:40:05.874Z,24.59
2022-09-03T11:42:39.249Z,24.43
2022-09-03T11:45:30.113Z,24.29
2022-09-03T11:47:56.779Z,23.97
2022-09-03T11:50:31.640Z,23.98
2022-09-03T11:53:10.652Z,24.14
2022-09-03T11:56:06.459Z,24.24
2022-09-03T11:58:36.568Z,24.42
2022-09-03T12:01:09.023Z,24.17
2022-09-03T12:04:08.057Z,24.12
2022-09-03T12:06:54.317Z,23.90
2022-09-03T12:09:39.619Z,24.08
2022-09-03T12:12:36.949Z,24.20
2022-09-03T12:15:40.817Z,23.91
2022-09-03T12:18:20.637Z,23.99
2022-09-03T12:20:50.807Z,24.34
2022-09-03T12:23:35.287Z,23.94
2022-09-03T12:26:08.318Z,23.99
2022-09-03T12:28:41.457Z,23.72
2022-09-03T12:31:24.729Z,23.92
2022-09-03T12:33:59.907Z,24.11
2022-09-03T12:36:37.064Z,24.01
2022-09-03T12:42:20.847Z,24.17
2022-09-03T12:44:47.604Z,24.35
2022-09-03T12:47:36.905Z,24.25
2022-09-03T12:50:24.286Z,24.50
2022-09-03T12:52:56.297Z,24.29
2022-09-03T12:55:42.898Z,24.12
2022-09-03T12:58:25.536Z,24.75
2022-09-03T13:01:01.054Z,24.70
2022-09-03T13:03:32.599Z,24.73
2022-09-03T13:06:08.152Z,24.68
2022-09-03T13:08:50.649Z,24.76
2022-09-03T13:11:21.064Z,24.45
2022-09-03T13:14:00.494Z,24.47
2022-09-03T13:16:45.372Z,24.54
2022-09-03T13:19:11.856Z,24.56
2022-09-03T13:22:04.207Z,24.71
2022-09-03T13:24:51.920Z,24.70
2022-09-03T13:27:26.478Z,24.31
2022-09-03T13:30:05.221Z,24.29
2022-09-03T13:32:51.786Z,24.80
2022-09-03T13:35:34.628Z,24.80
2022-09-03T13:38:14.816Z,24.72
2022-09-03T13:41:21.509Z,24.63
2022-09-03T13:44:07.818Z,24.56
2022-09-03T13:46:46.583Z,24.70
2022-09-03T13:49:37.759Z,24.88
2022-09-03T13:52:11.329Z,24.77
2022-09-03T13:54:49.818Z,24.57
2022-09-03T13:57:22.529Z,24.36
2022-09-03T14:00:00.051Z,24.47
2022-09-03T14:02:45.367Z,24.08
2022-09-03T14:05:19.697Z,24.09
2022-09-03T14:08:02.690Z,24.17
2022-09-03T14:10:52.685Z,24.14
2022-09-03T14:13:37.547Z,24.17
2022-09-03T14:16:09.124Z,23.84
2022-09-03T14:18:51.886Z,23.79
2022-09-03T14:21:44.356Z,23.77
2022-09-03T14:24:37.628Z,23.59
2022-09-03T14:27:04.848Z,23.84
2022-09-03T14:29:35.978Z,23.88
2022-09-03T14:32:15.443Z,23.94
2022-09-03T14:35:04.561Z,23.93
2022-09-03T14:37:50.094Z,24.40
2022-09-03T14:40:29.778Z,24.47
2022-09-03T14:43:33.919Z,24.32
2022-09-03T14:46:23.128Z,24.43
2022-09-03T14:49:04.980Z,24.62
2022-09-03T14:51:56.015Z,24.72
2022-09-03T14:55:16.818Z,24.70
2022-09-03T14:57:55.233Z,24.47
2022-09-03T15:00:33.352Z,24.94
2022-09-03T15:03:42.836Z,25.09
2022-09-03T15:06:36.804Z,25.44
2022-09-03T15:09:40.584Z,25.23
2022-09-03T15:12:23.487Z,25.48
2022-09-03T15:14:55.078Z,25.69
2022-09-03T15:17:46.190Z,26.17
2022-09-03T15:20:43.638Z,25.49
2022-09-03T15:23:38.035Z,26.04
2022-09-03T15:26:10.899Z,25.78
2022-09-03T15:29:02.040Z,26.04
2022-09-03T15:31:47.205Z,25.75
2022-09-03T15:34:22.815Z,25.85
2022-09-03T15:36:54.516Z,26.24
2022-09-03T15:39:27.147Z,26.28
2022-09-03T15:41:58.250Z,25.91
2022-09-03T15:44:27.908Z,26.40
2022-09-03T15:47:00.699Z,26.23
2022-09-03T15:49:58.384Z,25.70
2022-09-03T15:52:43.101Z,25.59
2022-09-03T15:55:09.815Z,25.73
2022-09-03T15:58:06.078Z,25.88
2022-09-03T16:00:48.382Z,25.73
2022-09-03T16:03:23.823Z,25.51
2022-09-03T16:06:20.820Z,25.59
2022-09-03T16:08:55.790Z,25.31
2022-09-03T16:11:52.088Z,25.34
2022-09-03T16:14:28.846Z,25.43
2022-09-03T16:17:16.058Z,25.21
2022-09-03T16:20:01.662Z,25.42
2022-09-03T16:22:34.142Z,25.46
2022-09-03T16:25:09.850Z,25.63
2022-09-03T16:27:51.360Z,25.28
2022-09-03T16:30:39.016Z,25.33
2022-09-03T16:33:27.839Z,25.31
2022-09-03T16:36:01.576Z,25.37
2022-09-03T16:38:47.616Z,25.42
2022-09-03T16:41:28.140Z,25.55
2022-09-03T16:44:33.853Z,25.40
2022-09-03T16:47:19.081Z,25.44
2022-09-03T16:50:04.913Z,25.75
2022-09-03T16:52:54.133Z,25.65
2022-09-03T16:55:25.500Z,26.24
2022-09-03T16:57:54.740Z,25.94
2022-09-03T17:00:22.294Z,26.38
2022-09-03T17:03:26.767Z,26.30
2022-09-03T17:06:11.419Z,26.44
2022-09-03T17:08:58.547Z,26.06
2022-09-03T17:11:46.324Z,25.98
2022-09-03T17:14:25.973Z,26.25
2022-09-03T17:17:08.536Z,25.94
2022-09-03T17:20:13.190Z,26.04
2022-09-03T17:22:42.636Z,26.24
2022-09-03T17:25:29.019Z,26.04
2022-09-03T17:28:57.844Z,26.13
2022-09-03T17:31:40.614Z,26.49
2022-09-03T17:34:19.618Z,26.06
2022-09-03T17:37:27.514Z,26.03
2022-09-03T17:40:31.013Z,26.06
2022-09-03T17:43:18.540Z,26.20
2022-09-03T17:45:51.086Z,26.17
2022-09-03T17:48:24.900Z,26.12
2022-09-03T17:50:57.430Z,26.11
2022-09-03T17:53:48.820Z,26.22
2022-09-03T17:56:33.704Z,26.50
2022-09-03T17:59:08.008Z,26.29
2022-09-03T18:01:38.721Z,26.40
2022-09-03T18:04:19.983Z,26.60
2022-09-03T18:07:08.112Z,26.70
2022-09-03T18:09:46.164Z,26.90
2022-09-03T18:13:04.615Z,26.79
2022-09-03T18:15:40.345Z,26.75
2022-09-03T18:18:26.580Z,27.25
2022-09-03T18:21:25.234Z,27.30
2022-09-03T18:24:37.864Z,27.29
2022-09-03T18:27:31.346Z,27.36
2022-09-03T18:30:26.758Z,27.75
2022-09-03T18:33:12.252Z,27.59
2022-09-03T18:35:58.069Z,27.67
2022-09-03T18:38:45.869Z,28.14
2022-09-03T18:41:33.918Z,27.90
2022-09-03T18:44:37.531Z,28.16
2022-09-03T18:51:10.558Z,28.59
2022-09-03T18:54:26.225Z,28.70
2022-09-03T18:57:13.053Z,28.27
2022-09-03T19:00:28.788Z,28.76
2022-09-03T19:03:55.369Z,29.04
2022-09-03T19:06:55.424Z,28.77
2022-09-03T19:09:55.610Z,28.68
2022-09-03T19:12:40.500Z,28.86
2022-09-03T19:15:31.486Z,29.01
2022-09-03T19:18:38.598Z,29.09
2022-09-03T19:21:36.739Z,29.37
2022-09-03T19:24:21.582Z,28.53
2022-09-03T19:27:51.711Z,28.87
2022-09-03T19:31:00.682Z,29.00
2022-09-03T19:34:10.799Z,28.99
2022-09-03T19:37:04.705Z,29.63
2022-09-03T19:40:27.403Z,29.30
2022-09-03T19:43:48.262Z,29.60
2022-09-03T19:46:48.818Z,29.88
2022-09-03T19:49:49.180Z,30.00
2022-09-03T19:52:40.308Z,29.57
2022-09-03T19:55:28.914Z,30.08
2022-09-03T19:58:39.602Z,30.29
2022-09-03T20:01:24.800Z,30.05
2022-09-03T20:04:10.894Z,30.12
2022-09-03T20:06:57.724Z,30.40
2022-09-03T20:09:48.223Z,30.68
2022-09-03T20:12:18.761Z,30.38
2022-09-03T20:14:45.293Z,30.32
2022-09-03T20:17:20.153Z,31.11
2022-09-03T20:19:55.577Z,30.85
2022-09-03T20:22:32.370Z,30.79
2022-09-03T20:24:59.642Z,30.82
2022-09-03T20:27:52.236Z,31.13
2022-09-03T20:30:21.242Z,31.03
2022-09-03T20:32:53.232Z,30.88
2022-09-03T20:35:25.910Z,31.20
2022-09-03T20:38:31.771Z,30.86
2022-09-03T20:41:26.404Z,31.21
2022-09-03T20:43:59.238Z,31.23
2022-09-03T20:46:54.922Z,31.27
2022-09-03T20:50:10.023Z,31.19
2022-09-03T20:53:02.026Z,31.81
2022-09-03T20:55:36.548Z,31.84
2022-09-03T20:58:18.228Z,31.68
2022-09-03T21:00:57.985Z,31.77
2022-09-03T21:03:32.149Z,32.07
2022-09-03T21:06:44.298Z,31.74
2022-09-03T21:09:29.567Z,31.93
2022-09-03T21:12:09.878Z,32.16
2022-09-03T21:14:54.494Z,32.11
2022-09-03T21:17:38.976Z,31.98
2022-09-03T21:20:15.879Z,32.41
2022-09-03T21:23:21.522Z,32.25
2022-09-03T21:25:54.223Z,32.19
2022-09-03T21:28:32.154Z,32.50
2022-09-03T21:31:02.461Z,32.56
2022-09-03T21:33:38.743Z,32.44
2022-09-03T21:36:20.217Z,32.78
2022-09-03T21:38:59.536Z,32.87
2022-09-03T21:41:47.563Z,32.91
2022-09-03T21:44:19.076Z,32.94
2022-09-03T21:46:54.719Z,33.31
2022-09-03T21:49:29.390Z,33.16
2022-09-03T21:52:04.095Z,33.51
2022-09-03T21:54:33.652Z,33.29
2022-09-03T21:57:28.443Z,33.48
2022-09-03T22:00:10.030Z,33.50
2022-09-03T22:02:36.929Z,33.36
2022-09-03T22:05:04.416Z,33.36
2022-09-03T22:07:50.821Z,33.61
2022-09-03T22:10:23.192Z,33.51
2022-09-03T22:13:27.316Z,33.51
2022-09-03T22:16:01.456Z,33.62
2022-09-03T22:18:31.106Z,33.54
2022-09-03T22:21:05.303Z,33.65
2022-09-03T22:23:56.164Z,34.16
2022-09-03T22:26:45.115Z,34.15
2022-09-03T22:29:15.452Z,33.71
2022-09-03T22:32:02.149Z,33.98
2022-09-03T22:34:43.808Z,34.20
2022-09-03T22:37:41.633Z,34.16
2022-09-03T22:40:42.125Z,33.98
2022-09-03T22:43:30.222Z,34.48
2022-09-03T22:46:10.396Z,34.17
2022-09-03T22:48:55.157Z,34.32
2022-09-03T22:51:22.104Z,34.13
2022-09-03T22:54:07.319Z,34.23
2022-09-03T22:56:38.095Z,34.55
2022-09-03T22:59:12.953Z,34.77
2022-09-03T23:01:45.363Z,34.67
2022-09-03T23:04:38.551Z,34.57
2022-09-03T23:07:31.507Z,34.80
2022-09-03T23:10:04.417Z,34.70
2022-09-03T23:12:44.987Z,35.00
2022-09-03T23:15:30.438Z,35.02
2022-09-03T23:18:17.599Z,35.15
2022-09-03T23:20:55.316Z,35.10
2022-09-03T23:23:44.998Z,34.89
2022-09-03T23:26:14.077Z,35.15
2022-09-03T23:28:54.439Z,35.27
2022-09-03T23:31:24.087Z,35.26
2022-09-03T23:33:53.780Z,35.27
2022-09-03T23:40:10.353Z,35.74
2022-09-03T23:43:00.643Z,35.70
2022-09-03T23:45:27.680Z,35.39
2022-09-03T23:48:12.214Z,36.01
2022-09-03T23:51:10.951Z,35.69
2022-09-03T23:54:02.597Z,35.95
2022-09-03T23:56:45.440Z,35.74
2022-09-03T23:59:30.588Z,35.69
